MAPL56 YWLM-YWLM

Flight info

Callsign MAPL56
Flight time 1h 11m
Altitude 35000
Route IFFEY
Aircraft F35/M-SADILOTUV/C

Departure

Time 2026-04-26 10:06
Airport Newcastle Airport (YWLM)

Arrival

Time 2026-04-26 11:17
Airport Newcastle Airport (YWLM)
Time Latitude Longitude Altitude Speed Heading
2026-04-26 09:53 -32.79308 151.83377 29 ft 10 kts 307°
2026-04-26 09:54 -32.79266 151.83318 31 ft 10 kts 310°
2026-04-26 09:54 -32.79219 151.83252 32 ft 11 kts 310°
2026-04-26 09:54 -32.79170 151.83184 32 ft 11 kts 310°
2026-04-26 09:54 -32.79121 151.83115 32 ft 11 kts 311°
2026-04-26 09:55 -32.79064 151.83038 33 ft 13 kts 311°
2026-04-26 09:55 -32.78995 151.82942 31 ft 18 kts 310°
2026-04-26 09:55 -32.78906 151.82816 29 ft 21 kts 310°
2026-04-26 09:55 -32.78807 151.82678 28 ft 22 kts 311°
2026-04-26 09:56 -32.78705 151.82591 28 ft 17 kts 31°
2026-04-26 09:56 -32.78620 151.82619 28 ft 14 kts 310°
2026-04-26 09:56 -32.78562 151.82538 28 ft 12 kts 301°
2026-04-26 09:56 -32.78569 151.82506 28 ft 0 kts 221°
2026-04-26 10:04 -32.78573 151.82502 28 ft 5 kts 221°
2026-04-26 10:04 -32.78569 151.82465 28 ft 6 kts 311°
2026-04-26 10:05 -32.78578 151.82414 28 ft 12 kts 221°
2026-04-26 10:05 -32.78645 151.82347 28 ft 12 kts 220°
2026-04-26 10:05 -32.78718 151.82292 26 ft 12 kts 174°
2026-04-26 10:05 -32.78847 151.82451 27 ft 92 kts 130°
2026-04-26 10:06 -32.79695 151.83617 138 ft 268 kts 131°
2026-04-26 10:06 -32.81154 151.85639 788 ft 375 kts 129°
2026-04-26 10:06 -32.82862 151.88036 1561 ft 360 kts 128°
2026-04-26 10:06 -32.83703 151.90660 2819 ft 355 kts 88°
2026-04-26 10:07 -32.83346 151.93556 3211 ft 350 kts 79°
2026-04-26 10:07 -32.82918 151.96365 5720 ft 354 kts 78°
2026-04-26 10:07 -32.82461 151.99292 8534 ft 370 kts 79°
2026-04-26 10:07 -32.81985 152.02346 11647 ft 385 kts 79°
2026-04-26 10:08 -32.81544 152.05594 14777 ft 416 kts 86°
2026-04-26 10:08 -32.81720 152.09047 17413 ft 425 kts 99°
2026-04-26 10:08 -32.82231 152.12599 20170 ft 443 kts 100°
2026-04-26 10:08 -32.82768 152.16248 23241 ft 464 kts 100°
2026-04-26 10:09 -32.83344 152.20157 25382 ft 484 kts 100°
2026-04-26 10:09 -32.83930 152.24120 27105 ft 502 kts 101°
2026-04-26 10:09 -32.84544 152.28266 28720 ft 518 kts 101°
2026-04-26 10:09 -32.85174 152.32506 30175 ft 524 kts 101°
2026-04-26 10:10 -32.85813 152.36810 31532 ft 533 kts 101°
2026-04-26 10:10 -32.86464 152.41238 32089 ft 550 kts 101°
2026-04-26 10:10 -32.87101 152.45717 32200 ft 548 kts 100°
2026-04-26 10:10 -32.87714 152.50188 32234 ft 548 kts 100°
2026-04-26 10:11 -32.88867 152.59122 32251 ft 544 kts 99°
2026-04-26 10:11 -32.89924 152.68041 32251 ft 545 kts 98°
2026-04-26 10:12 -32.90890 152.76990 32254 ft 545 kts 98°
2026-04-26 10:12 -32.91763 152.85951 32259 ft 544 kts 97°
2026-04-26 10:13 -32.92268 152.94904 31952 ft 547 kts 75°
2026-04-26 10:13 -32.89947 152.98260 29370 ft 538 kts 19°
2026-04-26 10:13 -32.86413 152.97943 24878 ft 531 kts 322°
2026-04-26 10:14 -32.84963 152.94153 22068 ft 508 kts 259°
2026-04-26 10:14 -32.86829 152.90983 22204 ft 493 kts 216°
2026-04-26 10:14 -32.89554 152.88598 22050 ft 484 kts 213°
2026-04-26 10:14 -32.92383 152.86438 21876 ft 479 kts 209°
2026-04-26 10:15 -32.95299 152.84510 21690 ft 480 kts 207°
2026-04-26 10:15 -32.98190 152.82558 21471 ft 477 kts 209°
2026-04-26 10:15 -33.01052 152.80566 21232 ft 476 kts 207°
2026-04-26 10:15 -33.04082 152.79068 21313 ft 473 kts 195°
2026-04-26 10:16 -33.07299 152.78218 21397 ft 472 kts 189°
2026-04-26 10:16 -33.10539 152.77555 21447 ft 474 kts 187°
2026-04-26 10:16 -33.13742 152.76914 21619 ft 474 kts 188°
2026-04-26 10:16 -33.17004 152.76247 21806 ft 476 kts 188°
2026-04-26 10:17 -33.20290 152.75791 21948 ft 476 kts 181°
2026-04-26 10:17 -33.23586 152.75866 22229 ft 475 kts 174°
2026-04-26 10:17 -33.26859 152.76485 22465 ft 471 kts 166°
2026-04-26 10:17 -33.29740 152.77784 22699 ft 418 kts 150°
2026-04-26 10:18 -33.32087 152.79595 22891 ft 390 kts 140°
2026-04-26 10:18 -33.33888 152.81941 22911 ft 381 kts 122°
2026-04-26 10:18 -33.35010 152.84801 22869 ft 389 kts 107°
2026-04-26 10:18 -33.35420 152.88125 22946 ft 422 kts 88°
2026-04-26 10:19 -33.34745 152.91621 23114 ft 441 kts 66°
2026-04-26 10:19 -33.32929 152.94614 23497 ft 450 kts 42°
2026-04-26 10:19 -33.30375 152.96600 23949 ft 421 kts 27°
2026-04-26 10:19 -33.27680 152.97769 23970 ft 413 kts 18°
2026-04-26 10:20 -33.24853 152.98690 24028 ft 431 kts 15°
2026-04-26 10:20 -33.22888 152.99230 24103 ft 445 kts 14°
2026-04-26 10:20 -33.18698 153.00272 24208 ft 470 kts 12°
2026-04-26 10:20 -33.15490 153.00950 24245 ft 465 kts 11°
2026-04-26 10:21 -33.12337 153.01618 24237 ft 455 kts 12°
2026-04-26 10:21 -33.09260 153.02287 24222 ft 445 kts 12°
2026-04-26 10:21 -33.06248 153.02960 24201 ft 437 kts 13°
2026-04-26 10:21 -33.03284 153.03629 24182 ft 430 kts 12°
2026-04-26 10:22 -33.00378 153.04246 24198 ft 418 kts 12°
2026-04-26 10:22 -32.97513 153.04865 24223 ft 422 kts 12°
2026-04-26 10:22 -32.94558 153.05517 24262 ft 441 kts 12°
2026-04-26 10:22 -32.91555 153.06149 24259 ft 422 kts 12°
2026-04-26 10:23 -32.88725 153.06743 24277 ft 412 kts 12°
2026-04-26 10:23 -32.85873 153.07342 24281 ft 413 kts 11°
2026-04-26 10:23 -32.83134 153.07906 24270 ft 396 kts 11°
2026-04-26 10:23 -32.80349 153.08484 24263 ft 413 kts 12°
2026-04-26 10:24 -32.77520 153.09093 24284 ft 412 kts 12°
2026-04-26 10:24 -32.74723 153.09672 24299 ft 406 kts 12°
2026-04-26 10:24 -32.71944 153.10259 24300 ft 406 kts 12°
2026-04-26 10:24 -32.69144 153.10845 24287 ft 412 kts 12°
2026-04-26 10:25 -32.66346 153.11427 24303 ft 403 kts 12°
2026-04-26 10:25 -32.63572 153.11805 24247 ft 407 kts
2026-04-26 10:25 -32.60752 153.11345 24252 ft 420 kts 345°
2026-04-26 10:25 -32.58149 153.09982 24259 ft 409 kts 329°
2026-04-26 10:26 -32.55888 153.07821 24238 ft 422 kts 314°
2026-04-26 10:26 -32.54228 153.05059 24221 ft 411 kts 297°
2026-04-26 10:26 -32.53230 153.01852 24243 ft 419 kts 281°
2026-04-26 10:26 -32.53005 152.98430 24242 ft 414 kts 265°
2026-04-26 10:27 -32.53540 152.95099 24237 ft 413 kts 247°
2026-04-26 10:27 -32.54837 152.92093 24241 ft 406 kts 233°
2026-04-26 10:27 -32.56747 152.89642 24252 ft 406 kts 217°
2026-04-26 10:27 -32.59106 152.87908 24253 ft 388 kts 202°
2026-04-26 10:28 -32.61641 152.86910 24248 ft 387 kts 189°
2026-04-26 10:28 -32.64386 152.86371 24256 ft 416 kts 187°
2026-04-26 10:28 -32.67141 152.85838 24247 ft 390 kts 187°
2026-04-26 10:28 -32.69870 152.85290 24249 ft 404 kts 188°
2026-04-26 10:29 -32.72577 152.84732 24257 ft 394 kts 188°
2026-04-26 10:29 -32.75282 152.84165 24268 ft 396 kts 188°
2026-04-26 10:29 -32.77997 152.83595 24265 ft 396 kts 188°
2026-04-26 10:29 -32.80699 152.83023 24250 ft 392 kts 188°
2026-04-26 10:30 -32.83374 152.82453 24248 ft 390 kts 187°
2026-04-26 10:30 -32.86069 152.81838 24297 ft 399 kts 191°
2026-04-26 10:30 -32.88787 152.81262 24317 ft 393 kts 188°
2026-04-26 10:30 -32.91463 152.80703 24305 ft 392 kts 188°
2026-04-26 10:31 -32.94167 152.80128 24324 ft 397 kts 188°
2026-04-26 10:31 -32.96873 152.79551 24312 ft 390 kts 188°
2026-04-26 10:31 -32.99509 152.78979 24304 ft 390 kts 188°
2026-04-26 10:31 -33.02193 152.78393 24295 ft 396 kts 188°
2026-04-26 10:32 -33.04916 152.77819 24304 ft 400 kts 189°
2026-04-26 10:32 -33.07696 152.77250 24303 ft 399 kts 189°
2026-04-26 10:32 -33.10361 152.76650 24292 ft 390 kts 188°
2026-04-26 10:32 -33.13029 152.76095 24293 ft 392 kts 188°
2026-04-26 10:33 -33.15740 152.75464 24327 ft 400 kts 188°
2026-04-26 10:33 -33.18507 152.74951 24356 ft 404 kts 187°
2026-04-26 10:33 -33.21225 152.74295 24351 ft 397 kts 192°
2026-04-26 10:33 -33.23887 152.73707 24425 ft 385 kts 186°
2026-04-26 10:34 -33.26548 152.73190 24355 ft 391 kts 189°
2026-04-26 10:34 -33.29250 152.72762 24450 ft 390 kts 179°
2026-04-26 10:34 -33.31950 152.73170 24414 ft 397 kts 165°
2026-04-26 10:34 -33.34534 152.74310 24450 ft 394 kts 151°
2026-04-26 10:35 -33.36721 152.76209 24462 ft 388 kts 133°
2026-04-26 10:35 -33.38479 152.78671 24395 ft 383 kts 124°
2026-04-26 10:35 -33.39604 152.81454 24432 ft 372 kts 105°
2026-04-26 10:35 -33.40050 152.84586 24199 ft 392 kts 92°
2026-04-26 10:36 -33.39772 152.87909 24269 ft 420 kts 78°
2026-04-26 10:36 -33.38846 152.91164 24278 ft 397 kts 60°
2026-04-26 10:36 -33.37289 152.93858 24254 ft 400 kts 54°
2026-04-26 10:36 -33.37053 152.96178 25611 ft 263 kts 141°
2026-04-26 10:37 -33.38999 152.96436 25021 ft 351 kts 198°
2026-04-26 10:37 -33.41285 152.94481 25353 ft 452 kts 231°
2026-04-26 10:37 -33.42724 152.91057 26288 ft 470 kts 257°
2026-04-26 10:37 -33.42878 152.87065 27636 ft 504 kts 277°
2026-04-26 10:38 -33.41783 152.82919 27538 ft 562 kts 298°
2026-04-26 10:38 -33.39175 152.79254 26928 ft 583 kts 323°
2026-04-26 10:38 -33.35675 152.77255 26764 ft 548 kts 352°
2026-04-26 10:38 -33.31833 152.77406 27802 ft 553 kts 10°
2026-04-26 10:39 -33.28041 152.78169 28776 ft 551 kts 11°
2026-04-26 10:39 -33.24275 152.78942 29763 ft 550 kts 11°
2026-04-26 10:39 -33.20545 152.79707 30726 ft 549 kts 11°
2026-04-26 10:39 -33.16786 152.80478 31639 ft 547 kts 11°
2026-04-26 10:40 -33.13042 152.81245 32609 ft 545 kts 10°
2026-04-26 10:40 -33.09307 152.82008 33642 ft 544 kts 10°
2026-04-26 10:40 -33.05581 152.82770 34671 ft 543 kts 10°
2026-04-26 10:40 -33.01862 152.83530 35673 ft 541 kts 10°
2026-04-26 10:41 -32.98157 152.84287 36741 ft 538 kts 10°
2026-04-26 10:41 -32.94468 152.85034 37699 ft 540 kts
2026-04-26 10:41 -32.90754 152.85764 38094 ft 541 kts
2026-04-26 10:41 -32.87040 152.86465 38218 ft 539 kts
2026-04-26 10:42 -32.80888 152.87566 38264 ft 537 kts
2026-04-26 10:42 -32.72230 152.88983 38268 ft 537 kts
2026-04-26 10:43 -32.64817 152.90075 38274 ft 537 kts
2026-04-26 10:43 -32.57381 152.91057 38272 ft 538 kts
2026-04-26 10:44 -32.49927 152.91930 38271 ft 538 kts
2026-04-26 10:44 -32.42470 152.92670 38269 ft 538 kts
2026-04-26 10:45 -32.35026 152.92585 38270 ft 539 kts 358°
2026-04-26 10:45 -32.27533 152.92282 38264 ft 539 kts
2026-04-26 10:46 -32.20185 152.93843 38228 ft 539 kts 17°
2026-04-26 10:46 -32.13013 152.96488 38278 ft 541 kts 17°
2026-04-26 10:47 -32.05812 152.99033 38282 ft 540 kts 16°
2026-04-26 10:47 -31.98592 153.01468 38283 ft 540 kts 15°
2026-04-26 10:48 -31.91346 153.03797 38278 ft 540 kts 14°
2026-04-26 10:48 -31.84061 153.06023 38281 ft 541 kts 14°
2026-04-26 10:49 -31.77991 153.07791 38283 ft 540 kts 13°
2026-04-26 10:49 -31.69493 153.10146 38276 ft 540 kts 13°
2026-04-26 10:50 -31.63430 153.12163 38278 ft 540 kts 16°
2026-04-26 10:50 -31.56235 153.14575 38283 ft 543 kts 15°
2026-04-26 10:51 -31.45294 153.18026 38278 ft 542 kts 14°
2026-04-26 10:52 -31.37983 153.20189 38279 ft 542 kts 13°
2026-04-26 10:52 -31.30646 153.22246 38277 ft 542 kts 12°
2026-04-26 10:53 -31.23291 153.24195 38277 ft 542 kts 12°
2026-04-26 10:53 -31.15917 153.26037 38276 ft 541 kts 11°
2026-04-26 10:54 -31.08616 153.27711 36810 ft 435 kts
2026-04-26 10:54 -31.06194 153.26716 25215 ft 437 kts 328°
2026-04-26 10:54 -31.03256 153.24407 14381 ft 556 kts 326°
2026-04-26 10:54 -30.99537 153.21930 6457 ft 681 kts 336°
2026-04-26 10:55 -30.95262 153.20079 4922 ft 579 kts 343°
2026-04-26 10:55 -30.91750 153.19354 5066 ft 469 kts 19°
2026-04-26 10:55 -30.88904 153.20990 5168 ft 451 kts 34°
2026-04-26 10:55 -30.86630 153.23252 4833 ft 415 kts 48°
2026-04-26 10:56 -30.84770 153.25682 4365 ft 391 kts 47°
2026-04-26 10:56 -30.82595 153.27353 4206 ft 364 kts 22°
2026-04-26 10:56 -30.80187 153.27891 3929 ft 342 kts 349°
2026-04-26 10:56 -30.78550 153.25839 3812 ft 433 kts 293°
2026-04-26 10:57 -30.77333 153.22172 3667 ft 524 kts 289°
2026-04-26 10:57 -30.76117 153.18020 3391 ft 553 kts 284°
2026-04-26 10:57 -30.77238 153.13991 3023 ft 553 kts 237°
2026-04-26 10:57 -30.79746 153.10567 2411 ft 554 kts 201°
2026-04-26 10:58 -30.83208 153.09183 3174 ft 502 kts 210°
2026-04-26 10:58 -30.86022 153.07100 3094 ft 456 kts 209°
2026-04-26 10:58 -30.88787 153.05590 2340 ft 414 kts 203°
2026-04-26 10:58 -30.91264 153.04364 1964 ft 362 kts 204°
2026-04-26 10:59 -30.93373 153.05136 1722 ft 379 kts 140°
2026-04-26 10:59 -30.95107 153.07356 2616 ft 355 kts 107°
2026-04-26 10:59 -30.94051 153.09291 2241 ft 341 kts 348°
2026-04-26 10:59 -30.93691 153.07375 1743 ft 294 kts 189°
2026-04-26 11:00 -30.95929 153.07357 1535 ft 365 kts 175°
2026-04-26 11:00 -30.98694 153.07474 1270 ft 426 kts 181°
2026-04-26 11:00 -31.01830 153.07278 563 ft 469 kts 185°
2026-04-26 11:00 -31.05148 153.06821 582 ft 491 kts 189°
2026-04-26 11:01 -31.08437 153.05516 245 ft 511 kts 207°
2026-04-26 11:01 -31.11701 153.03422 230 ft 556 kts 208°
2026-04-26 11:01 -31.15301 153.01522 234 ft 578 kts 200°
2026-04-26 11:01 -31.19178 153.00151 227 ft 586 kts 193°
2026-04-26 11:02 -31.23189 152.99352 546 ft 584 kts 188°
2026-04-26 11:02 -31.27281 152.98606 474 ft 601 kts 189°
2026-04-26 11:02 -31.31391 152.97700 412 ft 603 kts 191°
2026-04-26 11:02 -31.35615 152.96574 416 ft 629 kts 194°
2026-04-26 11:03 -31.39859 152.95248 409 ft 632 kts 194°
2026-04-26 11:03 -31.44173 152.94167 362 ft 636 kts 189°
2026-04-26 11:03 -31.48569 152.93557 276 ft 636 kts 189°
2026-04-26 11:03 -31.52770 152.91971 89 ft 635 kts 206°
2026-04-26 11:04 -31.56569 152.89327 176 ft 636 kts 213°
2026-04-26 11:04 -31.60324 152.86626 270 ft 634 kts 208°
2026-04-26 11:04 -31.64330 152.84447 257 ft 634 kts 201°
2026-04-26 11:04 -31.68221 152.82306 2520 ft 596 kts 208°
2026-04-26 11:05 -31.72066 152.79878 4565 ft 654 kts 207°
2026-04-26 11:05 -31.76051 152.77406 3504 ft 622 kts 207°
2026-04-26 11:05 -31.80093 152.74919 1717 ft 676 kts 207°
2026-04-26 11:05 -31.84246 152.72339 1876 ft 656 kts 208°
2026-04-26 11:06 -31.88039 152.69802 5771 ft 625 kts 210°
2026-04-26 11:06 -31.92013 152.67046 4833 ft 702 kts 211°
2026-04-26 11:06 -31.96172 152.63905 2578 ft 725 kts 212°
2026-04-26 11:06 -32.00462 152.60657 1520 ft 729 kts 212°
2026-04-26 11:07 -32.04706 152.57434 558 ft 722 kts 213°
2026-04-26 11:07 -32.08735 152.54362 535 ft 602 kts 213°
2026-04-26 11:07 -32.12443 152.52006 1022 ft 629 kts 191°
2026-04-26 11:07 -32.16813 152.52522 1376 ft 640 kts 170°
2026-04-26 11:08 -32.21276 152.52851 1280 ft 646 kts 182°
2026-04-26 11:08 -32.25748 152.53065 887 ft 645 kts 169°
2026-04-26 11:08 -32.30177 152.53868 882 ft 645 kts 174°
2026-04-26 11:08 -32.34608 152.53763 1018 ft 649 kts 189°
2026-04-26 11:09 -32.39014 152.52782 863 ft 643 kts 175°
2026-04-26 11:09 -32.43365 152.53647 1310 ft 648 kts 201°
2026-04-26 11:09 -32.45918 152.49394 1874 ft 662 kts 247°
2026-04-26 11:09 -32.47500 152.44329 2601 ft 662 kts 245°
2026-04-26 11:10 -32.49536 152.39437 1561 ft 656 kts 240°
2026-04-26 11:10 -32.52201 152.35110 1184 ft 649 kts 225°
2026-04-26 11:10 -32.55636 152.31611 954 ft 651 kts 216°
2026-04-26 11:10 -32.59411 152.28652 1162 ft 653 kts 212°
2026-04-26 11:11 -32.63194 152.25858 1564 ft 585 kts 213°
2026-04-26 11:11 -32.66163 152.23447 1446 ft 468 kts 204°
2026-04-26 11:11 -32.68941 152.22131 1281 ft 395 kts 202°
2026-04-26 11:11 -32.71328 152.20852 1376 ft 373 kts 207°
2026-04-26 11:12 -32.73428 152.19067 1535 ft 372 kts 221°
2026-04-26 11:12 -32.75285 152.16966 1893 ft 369 kts 224°
2026-04-26 11:12 -32.77123 152.14802 2872 ft 376 kts 224°
2026-04-26 11:12 -32.78934 152.11826 3412 ft 552 kts 243°
2026-04-26 11:13 -32.80769 152.07198 3460 ft 659 kts 246°
2026-04-26 11:13 -32.82436 152.02024 3154 ft 679 kts 257°
2026-04-26 11:13 -32.82941 151.96363 2799 ft 700 kts 273°
2026-04-26 11:13 -32.82403 151.90595 2227 ft 715 kts 278°
2026-04-26 11:14 -32.80791 151.85042 1126 ft 677 kts 313°
2026-04-26 11:14 -32.77985 151.81812 1029 ft 487 kts 316°
2026-04-26 11:14 -32.77386 151.78750 1592 ft 394 kts 218°
2026-04-26 11:14 -32.79892 151.79413 1675 ft 436 kts 140°
2026-04-26 11:15 -32.82143 151.81511 1643 ft 384 kts 140°
2026-04-26 11:15 -32.83809 151.83047 1661 ft 257 kts 139°
2026-04-26 11:15 -32.84911 151.84580 1988 ft 266 kts 96°
2026-04-26 11:15 -32.84161 151.86476 2183 ft 281 kts 36°
2026-04-26 11:16 -32.82646 151.87250 1310 ft 185 kts 335°
2026-04-26 11:16 -32.81663 151.86355 629 ft 173 kts 315°
2026-04-26 11:16 -32.80929 151.85356 238 ft 145 kts 310°
2026-04-26 11:16 -32.80325 151.84512 41 ft 132 kts 310°
2026-04-26 11:17 -32.79831 151.83825 31 ft 86 kts 310°
2026-04-26 11:17 -32.79499 151.83340 27 ft 67 kts 310°
2026-04-26 11:17 -32.79225 151.82957 30 ft 55 kts 310°
2026-04-26 11:17 -32.79006 151.82654 26 ft 27 kts 308°
2026-04-26 11:18 -32.78871 151.82513 24 ft 18 kts
2026-04-26 11:18 -32.78813 151.82562 28 ft 15 kts 46°
2026-04-26 11:18 -32.78799 151.82666 28 ft 14 kts 128°
2026-04-26 11:18 -32.78877 151.82777 29 ft 21 kts 130°
2026-04-26 11:19 -32.78973 151.82912 30 ft 22 kts 129°
2026-04-26 11:19 -32.79068 151.83046 33 ft 21 kts 130°
2026-04-26 11:19 -32.79174 151.83194 32 ft 26 kts 130°
2026-04-26 11:19 -32.79301 151.83366 29 ft 30 kts 131°
2026-04-26 11:20 -32.79328 151.83497 29 ft 16 kts 38°
2026-04-26 11:20 -32.79260 151.83562 31 ft 19 kts 40°
2026-04-26 11:20 -32.79123 151.83702 32 ft 20 kts 39°
2026-04-26 11:20 -32.79059 151.83719 31 ft 8 kts 322°
2026-04-26 11:21 -32.79009 151.83705 31 ft 9 kts 33°
2026-04-26 11:21 -32.79008 151.83760 31 ft 8 kts 143°
2026-04-26 11:21 -32.79057 151.83807 31 ft 5 kts 108°
2026-04-26 11:21 -32.79044 151.83840 31 ft 0 kts 54°
2026-04-26 11:22 -32.79040 151.83874 31 ft 7 kts 115°
2026-04-26 11:22 -32.79080 151.83862 31 ft 12 kts 240°
2026-04-26 11:22 -32.79048 151.83775 31 ft 9 kts 263°
2026-04-26 11:22 -32.79055 151.83757 31 ft 0 kts 233°